sensor_id;sensor_type;location;lat;lon;timestamp;pressure;altitude;pressure_sealevel;temperature;humidity
22830;BME280;11581;51.250;6.778;2022-10-19T00:01:57;102420.09;;;12.15;67.04
22830;BME280;11581;51.250;6.778;2022-10-19T00:04:26;102432.50;;;12.27;66.79
22830;BME280;11581;51.250;6.778;2022-10-19T00:06:53;102434.47;;;12.25;66.90
22830;BME280;11581;51.250;6.778;2022-10-19T00:09:20;102435.53;;;12.23;67.19
22830;BME280;11581;51.250;6.778;2022-10-19T00:11:48;102377.59;;;11.89;67.29
22830;BME280;11581;51.250;6.778;2022-10-19T00:14:19;102439.41;;;12.19;67.31
22830;BME280;11581;51.250;6.778;2022-10-19T00:16:49;102430.69;;;12.17;67.52
22830;BME280;11581;51.250;6.778;2022-10-19T00:19:18;102412.38;;;12.00;67.23
22830;BME280;11581;51.250;6.778;2022-10-19T00:21:47;102375.50;;;11.81;67.15
22830;BME280;11581;51.250;6.778;2022-10-19T00:24:14;102418.00;;;12.08;67.25
22830;BME280;11581;51.250;6.778;2022-10-19T00:26:41;102374.88;;;11.78;67.31
22830;BME280;11581;51.250;6.778;2022-10-19T00:29:10;102430.28;;;12.10;67.70
22830;BME280;11581;51.250;6.778;2022-10-19T00:31:38;102346.53;;;11.64;67.33
22830;BME280;11581;51.250;6.778;2022-10-19T00:34:06;102341.63;;;11.58;67.50
22830;BME280;11581;51.250;6.778;2022-10-19T00:36:36;102433.75;;;12.00;67.38
22830;BME280;11581;51.250;6.778;2022-10-19T00:39:04;102428.19;;;12.03;67.38
22830;BME280;11581;51.250;6.778;2022-10-19T00:41:33;102365.44;;;11.61;67.36
22830;BME280;11581;51.250;6.778;2022-10-19T00:44:03;102433.75;;;12.00;67.35
22830;BME280;11581;51.250;6.778;2022-10-19T00:46:33;102278.50;;;11.10;67.40
22830;BME280;11581;51.250;6.778;2022-10-19T00:49:03;102433.16;;;11.96;67.83
22830;BME280;11581;51.250;6.778;2022-10-19T00:51:35;102440.44;;;11.94;68.10
22830;BME280;11581;51.250;6.778;2022-10-19T00:54:04;102428.06;;;11.93;67.76
22830;BME280;11581;51.250;6.778;2022-10-19T00:56:32;102426.44;;;11.91;67.85
22830;BME280;11581;51.250;6.778;2022-10-19T00:59:02;102422.06;;;11.90;68.33
22830;BME280;11581;51.250;6.778;2022-10-19T01:01:31;102424.00;;;11.88;68.05
22830;BME280;11581;51.250;6.778;2022-10-19T01:03:59;102415.13;;;11.87;67.74
22830;BME280;11581;51.250;6.778;2022-10-19T01:06:27;102400.00;;;11.75;67.83
22830;BME280;11581;51.250;6.778;2022-10-19T01:08:57;102414.38;;;11.85;67.96
22830;BME280;11581;51.250;6.778;2022-10-19T01:11:31;102415.47;;;11.83;68.58
22830;BME280;11581;51.250;6.778;2022-10-19T01:14:15;102412.94;;;11.81;68.68
22830;BME280;11581;51.250;6.778;2022-10-19T01:16:51;102418.28;;;11.81;68.39
22830;BME280;11581;51.250;6.778;2022-10-19T01:19:26;102409.50;;;11.79;68.78
22830;BME280;11581;51.250;6.778;2022-10-19T01:22:05;102415.81;;;11.78;68.12
22830;BME280;11581;51.250;6.778;2022-10-19T01:24:47;102422.25;;;11.76;68.55
22830;BME280;11581;51.250;6.778;2022-10-19T01:27:34;102413.59;;;11.72;68.95
22830;BME280;11581;51.250;6.778;2022-10-19T01:30:10;102411.91;;;11.71;68.80
22830;BME280;11581;51.250;6.778;2022-10-19T01:33:15;102419.28;;;11.68;69.41
22830;BME280;11581;51.250;6.778;2022-10-19T01:35:47;102414.94;;;11.67;68.07
22830;BME280;11581;51.250;6.778;2022-10-19T01:38:23;102407.13;;;11.64;68.82
22830;BME280;11581;51.250;6.778;2022-10-19T01:41:03;102362.25;;;11.32;68.81
22830;BME280;11581;51.250;6.778;2022-10-19T01:43:40;102409.06;;;11.62;68.60
22830;BME280;11581;51.250;6.778;2022-10-19T01:46:12;102406.56;;;11.59;68.72
22830;BME280;11581;51.250;6.778;2022-10-19T01:48:45;102401.38;;;11.57;68.59
22830;BME280;11581;51.250;6.778;2022-10-19T01:51:17;102396.16;;;11.56;68.46
22830;BME280;11581;51.250;6.778;2022-10-19T01:53:49;102393.59;;;11.54;68.94
22830;BME280;11581;51.250;6.778;2022-10-19T01:56:21;102389.19;;;11.53;68.79
22830;BME280;11581;51.250;6.778;2022-10-19T01:58:50;102379.47;;;11.52;68.41
22830;BME280;11581;51.250;6.778;2022-10-19T02:01:23;102382.25;;;11.51;68.92
22830;BME280;11581;51.250;6.778;2022-10-19T02:03:53;102384.19;;;11.49;68.41
22830;BME280;11581;51.250;6.778;2022-10-19T02:06:21;102374.22;;;11.40;68.39
22830;BME280;11581;51.250;6.778;2022-10-19T02:08:51;102372.00;;;11.33;68.78
22830;BME280;11581;51.250;6.778;2022-10-19T02:11:20;102351.19;;;11.26;68.53
22830;BME280;11581;51.250;6.778;2022-10-19T02:13:51;102382.94;;;11.42;68.88
22830;BME280;11581;51.250;6.778;2022-10-19T02:16:25;102383.16;;;11.38;69.42
22830;BME280;11581;51.250;6.778;2022-10-19T02:18:56;102382.34;;;11.38;68.90
22830;BME280;11581;51.250;6.778;2022-10-19T02:21:26;102364.97;;;11.20;68.55
22830;BME280;11581;51.250;6.778;2022-10-19T02:23:53;102366.66;;;11.33;68.61
22830;BME280;11581;51.250;6.778;2022-10-19T02:26:21;102381.81;;;11.33;68.67
22830;BME280;11581;51.250;6.778;2022-10-19T02:28:48;102352.50;;;11.20;68.88
22830;BME280;11581;51.250;6.778;2022-10-19T02:31:15;102375.81;;;11.29;68.62
22830;BME280;11581;51.250;6.778;2022-10-19T02:33:45;102372.44;;;11.27;68.81
22830;BME280;11581;51.250;6.778;2022-10-19T02:36:12;102361.00;;;11.25;68.52
22830;BME280;11581;51.250;6.778;2022-10-19T02:38:40;102359.75;;;11.18;68.64
22830;BME280;11581;51.250;6.778;2022-10-19T02:41:12;102364.00;;;11.21;69.30
22830;BME280;11581;51.250;6.778;2022-10-19T02:43:44;102365.97;;;11.19;68.81
22830;BME280;11581;51.250;6.778;2022-10-19T02:46:17;102348.31;;;11.16;69.19
22830;BME280;11581;51.250;6.778;2022-10-19T02:48:50;102378.78;;;11.14;68.98
22830;BME280;11581;51.250;6.778;2022-10-19T02:51:31;102347.81;;;11.11;69.74
22830;BME280;11581;51.250;6.778;2022-10-19T02:53:59;102346.13;;;11.10;68.60
22830;BME280;11581;51.250;6.778;2022-10-19T02:56:26;102345.38;;;11.08;68.75
22830;BME280;11581;51.250;6.778;2022-10-19T02:58:53;102331.22;;;10.95;68.75
22830;BME280;11581;51.250;6.778;2022-10-19T03:01:22;102344.00;;;11.03;68.81
22830;BME280;11581;51.250;6.778;2022-10-19T03:03:51;102344.25;;;11.00;69.10
22830;BME280;11581;51.250;6.778;2022-10-19T03:06:18;102339.88;;;10.99;69.03
22830;BME280;11581;51.250;6.778;2022-10-19T03:08:45;102335.47;;;10.98;69.16
22830;BME280;11581;51.250;6.778;2022-10-19T03:11:12;102337.44;;;10.96;69.16
22830;BME280;11581;51.250;6.778;2022-10-19T03:13:40;102314.84;;;10.76;69.15
22830;BME280;11581;51.250;6.778;2022-10-19T03:16:08;102342.13;;;10.92;69.21
22830;BME280;11581;51.250;6.778;2022-10-19T03:18:35;102339.56;;;10.91;69.11
22830;BME280;11581;51.250;6.778;2022-10-19T03:21:05;102332.75;;;10.74;69.68
22830;BME280;11581;51.250;6.778;2022-10-19T03:23:33;102325.63;;;10.75;69.20
22830;BME280;11581;51.250;6.778;2022-10-19T03:26:01;102342.56;;;10.86;69.22
22830;BME280;11581;51.250;6.778;2022-10-19T03:28:28;102311.34;;;10.63;69.36
22830;BME280;11581;51.250;6.778;2022-10-19T03:30:56;102342.78;;;10.83;69.33
22830;BME280;11581;51.250;6.778;2022-10-19T03:33:23;102347.41;;;10.81;69.47
22830;BME280;11581;51.250;6.778;2022-10-19T03:36:17;102340.78;;;10.74;70.79
22830;BME280;11581;51.250;6.778;2022-10-19T03:38:45;102305.94;;;10.52;69.29
22830;BME280;11581;51.250;6.778;2022-10-19T03:41:12;102346.66;;;10.79;69.31
22830;BME280;11581;51.250;6.778;2022-10-19T03:43:39;102254.25;;;10.17;68.93
22830;BME280;11581;51.250;6.778;2022-10-19T03:46:08;102306.38;;;10.46;69.13
22830;BME280;11581;51.250;6.778;2022-10-19T03:48:36;102309.59;;;10.39;69.40
22830;BME280;11581;51.250;6.778;2022-10-19T03:51:05;102334.81;;;10.58;69.45
22830;BME280;11581;51.250;6.778;2022-10-19T03:53:35;102359.91;;;10.68;69.50
22830;BME280;11581;51.250;6.778;2022-10-19T03:56:04;102275.91;;;10.13;69.55
22830;BME280;11581;51.250;6.778;2022-10-19T03:58:33;102365.47;;;10.65;69.64
22830;BME280;11581;51.250;6.778;2022-10-19T04:01:01;102371.66;;;10.66;69.72
22830;BME280;11581;51.250;6.778;2022-10-19T04:03:27;102375.38;;;10.63;69.63
22830;BME280;11581;51.250;6.778;2022-10-19T04:06:01;102368.34;;;10.62;70.56
22830;BME280;11581;51.250;6.778;2022-10-19T04:08:28;102348.84;;;10.49;69.77
22830;BME280;11581;51.250;6.778;2022-10-19T04:11:01;102370.28;;;10.60;70.64
22830;BME280;11581;51.250;6.778;2022-10-19T04:13:29;102355.66;;;10.53;69.83
22830;BME280;11581;51.250;6.778;2022-10-19T04:15:57;102365.03;;;10.59;69.77
22830;BME280;11581;51.250;6.778;2022-10-19T04:18:24;102365.16;;;10.57;69.77
22830;BME280;11581;51.250;6.778;2022-10-19T04:20:55;102358.94;;;10.57;70.12
22830;BME280;11581;51.250;6.778;2022-10-19T04:23:22;102366.13;;;10.56;69.61
22830;BME280;11581;51.250;6.778;2022-10-19T04:25:49;102357.34;;;10.54;69.58
22830;BME280;11581;51.250;6.778;2022-10-19T04:28:17;102338.81;;;10.40;69.57
22830;BME280;11581;51.250;6.778;2022-10-19T04:30:44;102368.25;;;10.51;69.48
22830;BME280;11581;51.250;6.778;2022-10-19T04:33:11;102361.31;;;10.49;69.48
22830;BME280;11581;51.250;6.778;2022-10-19T04:35:38;102364.00;;;10.49;69.65
22830;BME280;11581;51.250;6.778;2022-10-19T04:38:05;102281.75;;;9.93;69.31
22830;BME280;11581;51.250;6.778;2022-10-19T04:40:34;102309.00;;;10.10;69.83
22830;BME280;11581;51.250;6.778;2022-10-19T04:43:01;102313.56;;;10.08;69.62
22830;BME280;11581;51.250;6.778;2022-10-19T04:45:33;102372.31;;;10.44;70.50
22830;BME280;11581;51.250;6.778;2022-10-19T04:48:00;102360.78;;;10.44;69.90
22830;BME280;11581;51.250;6.778;2022-10-19T04:50:28;102361.66;;;10.44;69.79
22830;BME280;11581;51.250;6.778;2022-10-19T04:52:56;102303.00;;;10.07;69.94
22830;BME280;11581;51.250;6.778;2022-10-19T04:55:23;102328.38;;;10.25;69.92
22830;BME280;11581;51.250;6.778;2022-10-19T04:57:50;102324.84;;;10.24;70.28
22830;BME280;11581;51.250;6.778;2022-10-19T05:00:17;102327.94;;;10.18;70.32
22830;BME280;11581;51.250;6.778;2022-10-19T05:02:46;102358.22;;;10.42;70.81
22830;BME280;11581;51.250;6.778;2022-10-19T05:05:13;102354.63;;;10.43;70.70
22830;BME280;11581;51.250;6.778;2022-10-19T05:07:40;102350.97;;;10.44;70.80
22830;BME280;11581;51.250;6.778;2022-10-19T05:10:09;102285.59;;;10.01;71.06
22830;BME280;11581;51.250;6.778;2022-10-19T05:12:37;102346.41;;;10.46;71.11
22830;BME280;11581;51.250;6.778;2022-10-19T05:15:05;102381.47;;;10.28;71.37
22830;BME280;11581;51.250;6.778;2022-10-19T05:17:32;102345.97;;;10.52;71.73
22830;BME280;11581;51.250;6.778;2022-10-19T05:20:01;102314.06;;;10.38;72.00
22830;BME280;11581;51.250;6.778;2022-10-19T05:22:27;102288.16;;;10.28;71.81
22830;BME280;11581;51.250;6.778;2022-10-19T05:24:54;102354.03;;;10.63;71.69
22830;BME280;11581;51.250;6.778;2022-10-19T05:27:22;102240.59;;;10.09;71.52
22830;BME280;11581;51.250;6.778;2022-10-19T05:29:49;102329.59;;;10.69;71.41
22830;BME280;11581;51.250;6.778;2022-10-19T05:32:15;102337.50;;;10.71;71.08
22830;BME280;11581;51.250;6.778;2022-10-19T05:34:42;102341.75;;;10.73;71.01
22830;BME280;11581;51.250;6.778;2022-10-19T05:37:14;102283.78;;;10.39;71.17
22830;BME280;11581;51.250;6.778;2022-10-19T05:39:42;102339.06;;;10.73;71.05
22830;BME280;11581;51.250;6.778;2022-10-19T05:42:09;102168.13;;;9.79;70.80
22830;BME280;11581;51.250;6.778;2022-10-19T05:44:36;102268.59;;;10.40;70.75
22830;BME280;11581;51.250;6.778;2022-10-19T05:47:03;102323.06;;;10.73;70.77
22830;BME280;11581;51.250;6.778;2022-10-19T05:49:30;102331.06;;;10.73;70.73
22830;BME280;11581;51.250;6.778;2022-10-19T05:51:57;102308.63;;;10.52;70.69
22830;BME280;11581;51.250;6.778;2022-10-19T05:54:25;102341.84;;;10.72;70.86
22830;BME280;11581;51.250;6.778;2022-10-19T05:56:54;102321.75;;;10.55;70.70
22830;BME280;11581;51.250;6.778;2022-10-19T05:59:23;102324.69;;;10.63;70.80
22830;BME280;11581;51.250;6.778;2022-10-19T06:01:51;102331.28;;;10.70;70.72
22830;BME280;11581;51.250;6.778;2022-10-19T06:04:18;102139.59;;;9.56;70.94
22830;BME280;11581;51.250;6.778;2022-10-19T06:06:45;102228.09;;;9.97;70.93
22830;BME280;11581;51.250;6.778;2022-10-19T06:09:12;101717.63;;;7.05;70.91
22830;BME280;11581;51.250;6.778;2022-10-19T06:11:41;102136.72;;;9.47;70.95
22830;BME280;11581;51.250;6.778;2022-10-19T06:14:12;102262.88;;;10.33;71.43
22830;BME280;11581;51.250;6.778;2022-10-19T06:16:44;102066.53;;;8.97;70.90
22830;BME280;11581;51.250;6.778;2022-10-19T06:19:17;102325.63;;;10.75;71.00
22830;BME280;11581;51.250;6.778;2022-10-19T06:21:44;102199.75;;;9.96;70.81
22830;BME280;11581;51.250;6.778;2022-10-19T06:24:11;102110.06;;;9.47;71.06
22830;BME280;11581;51.250;6.778;2022-10-19T06:26:38;102228.31;;;10.19;72.07
22830;BME280;11581;51.250;6.778;2022-10-19T06:29:08;102344.47;;;10.97;73.84
22830;BME280;11581;51.250;6.778;2022-10-19T06:31:36;102292.59;;;10.88;75.47
22830;BME280;11581;51.250;6.778;2022-10-19T06:34:04;102382.50;;;11.48;76.80
22830;BME280;11581;51.250;6.778;2022-10-19T06:36:32;102255.28;;;10.99;77.78
22830;BME280;11581;51.250;6.778;2022-10-19T06:39:00;102338.50;;;12.32;78.54
22830;BME280;11581;51.250;6.778;2022-10-19T06:41:27;102287.44;;;12.46;78.16
22830;BME280;11581;51.250;6.778;2022-10-19T06:43:55;102158.81;;;12.27;77.30
22830;BME280;11581;51.250;6.778;2022-10-19T06:46:25;101982.91;;;11.77;76.12
22830;BME280;11581;51.250;6.778;2022-10-19T06:48:53;102331.38;;;14.53;75.55
22830;BME280;11581;51.250;6.778;2022-10-19T06:51:21;102323.16;;;15.13;74.28
22830;BME280;11581;51.250;6.778;2022-10-19T06:53:51;102257.72;;;15.33;72.62
22830;BME280;11581;51.250;6.778;2022-10-19T06:56:19;102269.81;;;15.95;70.68
22830;BME280;11581;51.250;6.778;2022-10-19T06:58:50;102208.72;;;16.32;69.17
22830;BME280;11581;51.250;6.778;2022-10-19T07:01:17;102312.19;;;17.55;67.48
22830;BME280;11581;51.250;6.778;2022-10-19T07:03:48;102254.66;;;17.72;64.11
22830;BME280;11581;51.250;6.778;2022-10-19T07:06:21;102328.84;;;18.70;63.84
22830;BME280;11581;51.250;6.778;2022-10-19T07:08:50;102316.50;;;19.25;63.20
22830;BME280;11581;51.250;6.778;2022-10-19T07:11:19;102277.81;;;19.57;62.76
22830;BME280;11581;51.250;6.778;2022-10-19T07:13:48;102233.31;;;19.83;61.95
22830;BME280;11581;51.250;6.778;2022-10-19T07:16:17;102289.38;;;20.84;60.33
22830;BME280;11581;51.250;6.778;2022-10-19T07:18:49;102311.13;;;21.60;56.55
22830;BME280;11581;51.250;6.778;2022-10-19T07:21:18;102344.66;;;22.27;56.88
22830;BME280;11581;51.250;6.778;2022-10-19T07:23:47;102320.63;;;22.88;56.52
22830;BME280;11581;51.250;6.778;2022-10-19T07:26:16;102331.66;;;23.51;53.69
22830;BME280;11581;51.250;6.778;2022-10-19T07:28:48;102245.63;;;23.57;52.91
22830;BME280;11581;51.250;6.778;2022-10-19T07:31:22;102314.13;;;24.64;49.53
22830;BME280;11581;51.250;6.778;2022-10-19T07:33:52;102155.34;;;24.22;44.60
22830;BME280;11581;51.250;6.778;2022-10-19T07:36:20;102235.81;;;25.25;47.60
22830;BME280;11581;51.250;6.778;2022-10-19T07:38:47;102338.03;;;26.28;45.92
22830;BME280;11581;51.250;6.778;2022-10-19T07:41:16;102357.31;;;26.72;44.08
22830;BME280;11581;51.250;6.778;2022-10-19T07:43:45;102244.97;;;26.54;42.20
22830;BME280;11581;51.250;6.778;2022-10-19T07:46:14;102298.94;;;27.29;41.41
22830;BME280;11581;51.250;6.778;2022-10-19T07:48:42;102339.88;;;27.86;41.24
22830;BME280;11581;51.250;6.778;2022-10-19T07:51:14;102348.50;;;28.14;36.77
22830;BME280;11581;51.250;6.778;2022-10-19T07:53:41;102333.38;;;28.30;37.59
22830;BME280;11581;51.250;6.778;2022-10-19T07:56:13;102345.47;;;28.22;35.09
22830;BME280;11581;51.250;6.778;2022-10-19T07:58:42;102323.16;;;27.94;34.90
22830;BME280;11581;51.250;6.778;2022-10-19T08:01:14;102334.25;;;27.43;34.78
22830;BME280;11581;51.250;6.778;2022-10-19T08:03:44;102332.66;;;26.79;34.62
22830;BME280;11581;51.250;6.778;2022-10-19T08:06:14;102334.69;;;26.07;34.70
22830;BME280;11581;51.250;6.778;2022-10-19T08:08:51;102341.25;;;25.26;36.08
22830;BME280;11581;51.250;6.778;2022-10-19T08:11:20;102230.97;;;23.85;36.99
22830;BME280;11581;51.250;6.778;2022-10-19T08:13:50;102328.13;;;23.78;38.34
22830;BME280;11581;51.250;6.778;2022-10-19T08:16:23;102331.75;;;23.22;38.75
22830;BME280;11581;51.250;6.778;2022-10-19T08:18:52;102331.53;;;22.74;39.72
22830;BME280;11581;51.250;6.778;2022-10-19T08:21:23;101958.19;;;20.13;39.51
22830;BME280;11581;51.250;6.778;2022-10-19T08:23:50;102246.09;;;21.44;40.19
22830;BME280;11581;51.250;6.778;2022-10-19T08:26:18;102324.47;;;21.47;40.69
22830;BME280;11581;51.250;6.778;2022-10-19T08:28:45;102337.78;;;21.03;41.38
22830;BME280;11581;51.250;6.778;2022-10-19T08:31:14;102300.38;;;20.44;41.75
22830;BME280;11581;51.250;6.778;2022-10-19T08:33:42;102314.00;;;19.96;42.36
22830;BME280;11581;51.250;6.778;2022-10-19T08:36:12;102262.09;;;19.44;42.67
22830;BME280;11581;51.250;6.778;2022-10-19T08:38:41;102342.09;;;19.39;43.38
22830;BME280;11581;51.250;6.778;2022-10-19T08:41:21;102327.94;;;18.95;44.02
22830;BME280;11581;51.250;6.778;2022-10-19T08:44:01;102309.47;;;18.49;44.85
22830;BME280;11581;51.250;6.778;2022-10-19T08:46:41;102281.19;;;18.02;45.40
22830;BME280;11581;51.250;6.778;2022-10-19T08:49:16;102313.19;;;17.97;46.55
22830;BME280;11581;51.250;6.778;2022-10-19T08:51:48;102273.13;;;17.59;47.42
22830;BME280;11581;51.250;6.778;2022-10-19T08:54:21;102314.34;;;17.69;48.95
22830;BME280;11581;51.250;6.778;2022-10-19T08:56:55;102250.09;;;17.47;49.71
22830;BME280;11581;51.250;6.778;2022-10-19T08:59:34;102204.13;;;17.39;49.35
22830;BME280;11581;51.250;6.778;2022-10-19T09:02:09;102301.81;;;18.11;48.72
22830;BME280;11581;51.250;6.778;2022-10-19T09:04:41;102308.63;;;18.23;48.49
22830;BME280;11581;51.250;6.778;2022-10-19T09:07:22;102284.72;;;18.28;47.72
22830;BME280;11581;51.250;6.778;2022-10-19T09:09:54;102163.47;;;17.50;47.45
22830;BME280;11581;51.250;6.778;2022-10-19T09:12:30;102282.00;;;18.28;47.58
22830;BME280;11581;51.250;6.778;2022-10-19T09:15:01;102186.50;;;17.70;47.45
22830;BME280;11581;51.250;6.778;2022-10-19T09:17:30;102265.72;;;18.12;47.45
22830;BME280;11581;51.250;6.778;2022-10-19T09:20:12;102196.13;;;17.47;47.55
22830;BME280;11581;51.250;6.778;2022-10-19T09:22:42;102268.28;;;17.88;47.81
22830;BME280;11581;51.250;6.778;2022-10-19T09:25:16;102131.00;;;16.99;47.52
22830;BME280;11581;51.250;6.778;2022-10-19T09:27:46;102245.34;;;17.49;47.75
22830;BME280;11581;51.250;6.778;2022-10-19T09:30:16;102108.00;;;16.52;48.24
22830;BME280;11581;51.250;6.778;2022-10-19T09:32:46;102228.81;;;17.26;48.42
22830;BME280;11581;51.250;6.778;2022-10-19T09:35:23;102259.41;;;17.52;48.38
22830;BME280;11581;51.250;6.778;2022-10-19T09:37:57;102261.22;;;17.52;49.15
22830;BME280;11581;51.250;6.778;2022-10-19T09:40:29;102223.25;;;17.28;49.49
22830;BME280;11581;51.250;6.778;2022-10-19T09:42:57;102267.06;;;17.65;49.87
22830;BME280;11581;51.250;6.778;2022-10-19T09:45:33;102211.84;;;17.34;49.13
22830;BME280;11581;51.250;6.778;2022-10-19T09:48:12;102252.31;;;17.77;48.56
22830;BME280;11581;51.250;6.778;2022-10-19T09:50:44;102253.69;;;17.81;48.66
22830;BME280;11581;51.250;6.778;2022-10-19T09:53:20;102058.56;;;16.53;48.66
22830;BME280;11581;51.250;6.778;2022-10-19T09:55:56;102250.06;;;17.90;48.29
22830;BME280;11581;51.250;6.778;2022-10-19T09:58:24;102259.25;;;18.05;49.52
22830;BME280;11581;51.250;6.778;2022-10-19T10:00:53;102194.22;;;17.91;49.17
22830;BME280;11581;51.250;6.778;2022-10-19T10:03:24;102247.22;;;18.59;48.60
22830;BME280;11581;51.250;6.778;2022-10-19T10:05:52;102238.34;;;18.90;48.40
22830;BME280;11581;51.250;6.778;2022-10-19T10:08:21;102242.78;;;19.15;46.59
22830;BME280;11581;51.250;6.778;2022-10-19T10:10:57;102238.28;;;19.32;45.66
22830;BME280;11581;51.250;6.778;2022-10-19T10:13:25;102242.66;;;19.41;46.58
22830;BME280;11581;51.250;6.778;2022-10-19T10:15:55;102241.50;;;19.43;45.68
22830;BME280;11581;51.250;6.778;2022-10-19T10:18:25;102238.63;;;19.45;46.00
22830;BME280;11581;51.250;6.778;2022-10-19T10:20:58;102238.75;;;19.51;46.18
22830;BME280;11581;51.250;6.778;2022-10-19T10:23:28;102184.00;;;19.33;47.07
22830;BME280;11581;51.250;6.778;2022-10-19T10:25:58;102196.78;;;19.71;46.65
22830;BME280;11581;51.250;6.778;2022-10-19T10:28:27;102240.88;;;20.59;46.03
22830;BME280;11581;51.250;6.778;2022-10-19T10:30:59;102083.63;;;20.14;44.70
22830;BME280;11581;51.250;6.778;2022-10-19T10:33:28;102203.88;;;21.41;45.51
22830;BME280;11581;51.250;6.778;2022-10-19T10:36:01;102075.28;;;21.28;43.19
22830;BME280;11581;51.250;6.778;2022-10-19T10:38:31;102221.56;;;22.76;43.89
22830;BME280;11581;51.250;6.778;2022-10-19T10:41:05;102158.59;;;23.00;41.74
22830;BME280;11581;51.250;6.778;2022-10-19T10:43:48;102211.44;;;24.10;40.69
22830;BME280;11581;51.250;6.778;2022-10-19T10:46:20;102222.06;;;24.73;39.63
22830;BME280;11581;51.250;6.778;2022-10-19T10:48:54;102202.25;;;25.31;38.08
22830;BME280;11581;51.250;6.778;2022-10-19T10:51:31;102163.19;;;25.43;36.99
22830;BME280;11581;51.250;6.778;2022-10-19T10:54:16;102204.25;;;26.27;37.44
22830;BME280;11581;51.250;6.778;2022-10-19T10:57:02;102215.44;;;26.69;36.21
22830;BME280;11581;51.250;6.778;2022-10-19T10:59:34;102164.44;;;26.81;34.63
22830;BME280;11581;51.250;6.778;2022-10-19T11:02:12;102202.84;;;27.30;34.33
22830;BME280;11581;51.250;6.778;2022-10-19T11:04:50;102135.00;;;27.01;33.73
22830;BME280;11581;51.250;6.778;2022-10-19T11:07:21;102229.13;;;27.62;34.11
22830;BME280;11581;51.250;6.778;2022-10-19T11:09:52;102072.97;;;26.95;34.28
22830;BME280;11581;51.250;6.778;2022-10-19T11:12:30;102195.97;;;27.95;32.64
22830;BME280;11581;51.250;6.778;2022-10-19T11:15:07;102177.25;;;28.10;38.19
22830;BME280;11581;51.250;6.778;2022-10-19T11:17:38;102171.59;;;28.23;33.99
22830;BME280;11581;51.250;6.778;2022-10-19T11:20:13;102166.63;;;28.32;32.59
22830;BME280;11581;51.250;6.778;2022-10-19T11:22:47;102081.03;;;27.93;32.73
22830;BME280;11581;51.250;6.778;2022-10-19T11:25:28;102145.06;;;28.53;32.13
22830;BME280;11581;51.250;6.778;2022-10-19T11:28:14;102142.75;;;28.68;32.86
22830;BME280;11581;51.250;6.778;2022-10-19T11:30:54;102143.34;;;28.82;31.94
22830;BME280;11581;51.250;6.778;2022-10-19T11:33:32;102062.81;;;28.47;31.73
22830;BME280;11581;51.250;6.778;2022-10-19T11:36:11;102039.88;;;28.41;31.90
22830;BME280;11581;51.250;6.778;2022-10-19T11:38:51;102128.47;;;29.01;32.02
22830;BME280;11581;51.250;6.778;2022-10-19T11:41:29;102079.03;;;28.78;31.27
22830;BME280;11581;51.250;6.778;2022-10-19T11:47:13;102110.34;;;29.00;31.71
22830;BME280;11581;51.250;6.778;2022-10-19T11:49:55;102074.84;;;28.75;31.02
22830;BME280;11581;51.250;6.778;2022-10-19T11:52:30;102079.94;;;28.72;31.14
22830;BME280;11581;51.250;6.778;2022-10-19T11:55:06;102117.84;;;28.93;31.83
22830;BME280;11581;51.250;6.778;2022-10-19T11:57:48;101979.91;;;28.15;32.23
22830;BME280;11581;51.250;6.778;2022-10-19T12:00:18;102105.00;;;29.05;31.60
22830;BME280;11581;51.250;6.778;2022-10-19T12:03:24;102104.03;;;29.11;30.55
22830;BME280;11581;51.250;6.778;2022-10-19T12:06:04;102103.31;;;29.04;29.48
22830;BME280;11581;51.250;6.778;2022-10-19T12:08:48;102063.38;;;28.67;30.64
22830;BME280;11581;51.250;6.778;2022-10-19T12:11:27;102050.91;;;28.53;30.54
22830;BME280;11581;51.250;6.778;2022-10-19T12:14:00;102074.34;;;28.67;30.38
22830;BME280;11581;51.250;6.778;2022-10-19T12:16:36;102068.09;;;28.60;30.55
22830;BME280;11581;51.250;6.778;2022-10-19T12:19:15;101939.09;;;27.77;30.51
22830;BME280;11581;51.250;6.778;2022-10-19T12:21:45;102041.47;;;28.49;31.87
22830;BME280;11581;51.250;6.778;2022-10-19T12:24:16;102068.50;;;28.75;30.39
22830;BME280;11581;51.250;6.778;2022-10-19T12:26:44;102063.38;;;28.78;31.20
22830;BME280;11581;51.250;6.778;2022-10-19T12:29:15;101880.81;;;27.70;30.68
22830;BME280;11581;51.250;6.778;2022-10-19T12:31:43;101879.59;;;27.66;30.98
22830;BME280;11581;51.250;6.778;2022-10-19T12:34:22;102049.66;;;28.67;30.02
22830;BME280;11581;51.250;6.778;2022-10-19T12:36:55;102046.53;;;28.63;29.75
22830;BME280;11581;51.250;6.778;2022-10-19T12:39:31;102039.84;;;28.59;29.57
22830;BME280;11581;51.250;6.778;2022-10-19T12:42:05;102031.94;;;28.51;29.91
22830;BME280;11581;51.250;6.778;2022-10-19T12:45:00;102019.84;;;28.41;30.93
22830;BME280;11581;51.250;6.778;2022-10-19T12:47:33;102032.94;;;28.39;30.54
22830;BME280;11581;51.250;6.778;2022-10-19T12:50:02;102016.09;;;28.35;30.42
22830;BME280;11581;51.250;6.778;2022-10-19T12:52:37;102031.38;;;28.31;29.72
22830;BME280;11581;51.250;6.778;2022-10-19T12:55:10;102008.69;;;28.24;30.22
22830;BME280;11581;51.250;6.778;2022-10-19T12:57:39;101996.78;;;28.00;31.25
22830;BME280;11581;51.250;6.778;2022-10-19T13:00:19;101946.84;;;27.80;30.72
22830;BME280;11581;51.250;6.778;2022-10-19T13:02:55;101987.03;;;28.04;30.27
22830;BME280;11581;51.250;6.778;2022-10-19T13:05:27;101996.31;;;28.03;30.31
22830;BME280;11581;51.250;6.778;2022-10-19T13:07:55;101990.00;;;28.03;30.54
22830;BME280;11581;51.250;6.778;2022-10-19T13:10:25;101987.97;;;27.98;31.05
22830;BME280;11581;51.250;6.778;2022-10-19T13:12:54;101916.00;;;27.55;30.93
22830;BME280;11581;51.250;6.778;2022-10-19T13:15:54;101975.66;;;27.89;31.12